Latest Weather Observations for Roma

IDQ60801

Issued at 11:35 am EST Friday 1 August 2014 (issued every 30 minutes, with the page automatically refreshed every 10 minutes)

About weather observations | Map of weather stations | Latest weather observations for QLD | Other Formats
Station Details ID: 043091 Name: ROMA AIRPORT Lat: -26.55 Lon: 148.77 Height: 307.38 m
Data from the previous 72 hours. | See also: Recent months at Roma
Date/Time
EST
Temp
°C
App
Temp
°C
Dew
Point
Rel
Hum
%
Delta-T
°C
Wind Press
QNH
hPa
Press
MSL
hPa
Rain
since 9 am
mm
Dir
 
Spd
km/h
Gust
km/h
Spd
kts
Gust
kts
01/11:30am 25.5 18.9 4.0 25 10.8 WNW 28 41 15 22 1016.2 - 0.0
01/11:00am 24.8 18.3 4.5 27 10.3 WNW 28 39 15 21 1016.6 - 0.0
01/10:30am 23.6 17.5 5.0 30 9.4 WNW 26 35 14 19 1016.9 - 0.0
01/10:00am 22.7 16.0 5.6 33 8.7 WNW 30 41 16 22 1017.3 - 0.0
01/09:30am 20.9 15.8 6.1 38 7.5 NW 22 28 12 15 1017.5 - 0.0
01/09:00am 20.1 15.2 6.8 42 6.8 NW 22 28 12 15 1017.4 1016.6 0.0
01/08:30am 18.7 15.3 7.5 48 5.8 N 15 20 8 11 1017.4 - 0.0
01/08:00am 15.5 13.0 8.3 62 3.7 N 11 13 6 7 1017.1 - 0.0
01/07:30am 12.2 9.5 7.5 73 2.3 N 11 13 6 7 1016.9 - 0.0
01/07:00am 9.1 7.1 4.3 72 2.2 N 4 9 2 5 1016.5 - 0.0
01/06:30am 10.7 7.7 6.1 73 2.2 NNW 11 13 6 7 1016.3 - 0.0
01/06:00am 11.7 8.6 5.6 66 2.9 N 11 13 6 7 1015.8 1015.0 0.0
01/05:30am 10.5 7.8 3.8 63 3.0 WNW 7 11 4 6 1015.5 - 0.0
01/05:00am 12.6 8.5 4.3 57 3.8 N 15 15 8 8 1015.2 - 0.0
01/04:30am 13.2 9.1 4.1 54 4.2 N 15 17 8 9 1015.1 - 0.0
01/04:00am 13.8 9.7 4.4 53 4.4 N 15 17 8 9 1015.0 - 0.0
01/03:30am 14.1 10.4 4.4 52 4.5 NNE 13 15 7 8 1015.1 - 0.0
01/03:00am 13.9 9.8 4.5 53 4.4 N 15 19 8 10 1015.2 1014.4 0.0
01/02:30am 14.2 9.8 4.5 52 4.6 N 17 19 9 10 1015.2 - 0.0
01/02:00am 14.0 9.5 4.0 51 4.6 N 17 19 9 10 1015.4 - 0.0
01/01:30am 14.2 10.1 4.2 51 4.7 N 15 17 8 9 1015.4 - 0.0
01/01:00am 14.9 10.7 4.0 48 5.1 N 15 17 8 9 1015.6 - 0.0
01/12:30am 16.3 12.1 4.0 44 5.8 N 15 17 8 9 1015.6 - 0.0
01/12:00am 17.9 13.4 4.1 40 6.6 N 17 20 9 11 1015.8 1015.0 0.0
 
Date/Time
EST
Temp
°C
App
Temp
°C
Dew
Point
Rel
Hum
%
Delta-T
°C
Wind Press
QNH
hPa
Press
MSL
hPa
Rain
since 9 am
mm
Dir
 
Spd
km/h
Gust
km/h
Spd
kts
Gust
kts
31/11:30pm 18.4 13.8 3.8 38 7.0 N 17 22 9 12 1016.0 - 0.0
31/11:00pm 18.5 14.3 3.9 38 7.0 N 15 19 8 10 1016.1 - 0.0
31/10:30pm 17.5 14.3 5.1 44 6.0 N 11 15 6 8 1016.1 - 0.0
31/10:00pm 16.1 12.7 4.2 45 5.6 N 11 13 6 7 1016.1 - 0.0
31/09:30pm 15.8 12.0 3.9 45 5.6 N 13 13 7 7 1016.2 - 0.0
31/09:00pm 16.1 12.3 3.9 44 5.7 N 13 13 7 7 1016.1 1015.6 0.0
31/08:30pm 15.6 11.7 3.4 44 5.7 N 13 13 7 7 1016.2 - 0.0
31/08:00pm 14.8 10.9 3.3 46 5.3 N 13 13 7 7 1016.1 - 0.0
31/07:30pm 15.2 11.6 2.7 43 5.7 N 11 13 6 7 1015.9 - 0.0
31/07:00pm 16.9 13.2 2.1 37 6.8 NNE 11 11 6 6 1015.6 - 0.0
31/06:30pm 17.1 14.0 1.5 35 7.0 N 7 9 4 5 1015.3 - 0.0
31/06:00pm 18.7 14.9 1.7 32 7.8 N 11 13 6 7 1015.0 1014.5 0.0
31/05:30pm 21.8 18.0 1.5 26 9.5 N 11 15 6 8 1014.7 - 0.0
31/05:00pm 24.3 19.4 1.9 23 10.8 N 17 20 9 11 1014.7 - 0.0
31/04:30pm 25.1 20.2 1.9 22 11.2 N 17 28 9 15 1014.8 - 0.0
31/04:00pm 25.9 21.7 1.9 21 11.7 N 13 20 7 11 1014.9 - 0.0
31/03:30pm 25.8 20.2 1.2 20 11.8 NNW 20 26 11 14 1015.1 - 0.0
31/03:00pm 25.7 21.9 1.8 21 11.6 N 11 24 6 13 1015.2 1014.7 0.0
31/02:30pm 26.0 21.1 2.0 21 11.7 NNW 17 28 9 15 1015.6 - 0.0
31/02:00pm 26.4 21.5 1.7 20 12.0 N 17 28 9 15 1016.0 - 0.0
31/01:30pm 25.5 22.2 2.2 22 11.4 WNW 9 26 5 14 1016.6 - 0.0
31/01:00pm 25.4 20.9 2.2 22 11.3 N 15 26 8 14 1017.4 - 0.0
31/12:30pm 24.8 20.3 2.3 23 11.0 W 15 22 8 12 1018.0 - 0.0
31/12:00pm 25.4 21.1 3.4 24 10.9 N 15 24 8 13 1018.8 1018.3 0.0
31/11:30am 24.5 19.6 4.3 27 10.2 N 19 30 10 16 1019.4 - 0.0
31/11:00am 24.0 18.6 4.4 28 9.9 N 22 30 12 16 1020.0 - 0.0
31/10:30am 22.8 17.5 4.8 31 9.1 N 22 28 12 15 1020.7 - 0.0
31/10:00am 21.5 16.7 4.6 33 8.4 N 19 24 10 13 1021.0 - 0.0
31/09:30am 19.2 14.7 4.2 37 7.3 NNE 17 20 9 11 1021.1 - 0.0
31/09:00am 17.2 12.2 3.8 41 6.3 N 19 22 10 12 1021.0 1020.5 0.0
31/08:30am 13.9 10.6 2.5 46 5.1 NE 9 11 5 6 1021.2 - 0.0
31/08:00am 10.3 8.7 2.2 57 3.5 CALM 0 0 0 0 1021.2 - 0.0
31/07:30am 5.9 4.1 1.1 71 1.9 CALM 0 0 0 0 1021.2 - 0.0
31/07:00am 3.4 0.0 -1.7 69 1.9 NNE 6 7 3 4 1020.7 - 0.0
31/06:30am 3.6 0.4 -0.2 76 1.4 NNE 6 7 3 4 1020.2 - 0.0
31/06:00am 3.0 0.9 -1.0 75 1.5 CALM 0 0 0 0 1020.1 1019.7 0.0
31/05:30am 4.0 1.2 -0.2 74 1.6 NE 4 6 2 3 1020.2 - 0.0
31/05:00am 4.5 2.4 -0.5 70 1.9 CALM 0 0 0 0 1019.7 - 0.0
31/04:30am 3.0 -0.5 -2.7 66 2.0 N 6 9 3 5 1019.6 - 0.0
31/04:00am 4.3 0.9 -0.5 71 1.8 N 7 11 4 6 1019.7 - 0.0
31/03:30am 4.4 2.4 -0.4 71 1.8 CALM 0 0 0 0 1019.6 - 0.0
31/03:00am 3.7 1.5 -1.3 70 1.8 CALM 0 0 0 0 1019.7 1019.3 0.0
31/02:30am 5.0 1.2 -0.6 67 2.1 N 9 11 5 6 1019.9 - 0.0
31/02:00am 4.4 2.2 -1.4 66 2.2 CALM 0 0 0 0 1020.2 - 0.0
31/01:30am 4.7 0.4 -1.7 63 2.4 WNW 11 13 6 7 1020.4 - 0.0
31/01:00am 6.7 4.5 -1.2 57 3.0 CALM 0 7 0 4 1020.7 - 0.0
31/12:30am 6.9 4.8 -0.8 58 3.0 CALM 0 0 0 0 1020.5 - 0.0
31/12:00am 7.8 5.7 -0.9 54 3.4 CALM 0 0 0 0 1020.7 1020.2 0.0
 
Date/Time
EST
Temp
°C
App
Temp
°C
Dew
Point
Rel
Hum
%
Delta-T
°C
Wind Press
QNH
hPa
Press
MSL
hPa
Rain
since 9 am
mm
Dir
 
Spd
km/h
Gust
km/h
Spd
kts
Gust
kts
30/11:30pm 7.7 5.0 -2.6 48 3.9 NNE 2 6 1 3 1020.9 - 0.0
30/11:00pm 7.4 4.2 -0.8 56 3.2 NNE 6 6 3 3 1020.9 - 0.0
30/10:30pm 7.0 4.7 -2.2 52 3.5 CALM 0 2 0 1 1021.0 - 0.0
30/10:00pm 10.1 8.0 -1.0 46 4.4 CALM 0 6 0 3 1021.2 - 0.0
30/09:30pm 9.9 7.7 -1.5 45 4.5 CALM 0 0 0 0 1021.3 - 0.0
30/09:00pm 13.0 9.8 -0.3 40 5.6 NE 6 7 3 4 1021.1 1020.6 0.0
30/08:30pm 11.4 8.2 -0.7 43 4.9 ENE 6 7 3 4 1021.0 - 0.0
30/08:00pm 11.6 8.6 -2.2 38 5.5 ENE 4 15 2 8 1020.9 - 0.0
30/07:30pm 15.6 13.4 -1.4 31 7.1 CALM 0 0 0 0 1020.5 - 0.0
30/07:00pm 15.7 12.5 -0.5 33 6.9 SE 6 7 3 4 1020.2 - 0.0
30/06:30pm 17.4 14.0 -2.3 26 8.2 ENE 6 7 3 4 1019.9 - 0.0
30/06:00pm 18.5 14.9 -3.6 22 9.1 E 6 7 3 4 1019.6 1019.2 0.0
30/05:30pm 22.2 18.9 -4.0 17 11.1 SSE 4 6 2 3 1019.4 - 0.0
30/05:00pm 23.5 20.7 -3.7 16 11.7 SSW 2 9 1 5 1019.3 - 0.0
30/04:30pm 24.2 20.6 -4.0 15 12.1 SSE 6 13 3 7 1019.3 - 0.0
30/04:00pm 24.6 20.8 -3.7 15 12.3 S 7 9 4 5 1019.4 - 0.0
30/03:30pm 24.6 20.1 -2.9 16 12.1 S 11 19 6 10 1019.4 - 0.0
30/03:00pm 25.3 21.6 -3.2 15 12.5 NW 7 13 4 7 1019.4 1019.0 0.0
30/02:30pm 25.2 21.2 -2.4 16 12.4 SW 9 17 5 9 1019.5 - 0.0
30/02:00pm 24.8 20.5 -1.9 17 12.0 SSE 11 20 6 11 1019.8 - 0.0
30/01:30pm 24.6 21.2 -2.0 17 11.9 W 6 11 3 6 1020.2 - 0.0
30/01:00pm 23.8 19.6 -1.2 19 11.3 S 11 19 6 10 1020.5 - 0.0
30/12:30pm 24.0 19.9 -0.3 20 11.2 SSW 11 20 6 11 1021.3 - 0.0
30/12:00pm 24.8 21.8 1.7 22 11.1 NE 7 15 4 8 1021.9 1021.5 0.0
30/11:30am 23.2 19.5 -0.3 21 10.8 E 9 19 5 10 1022.5 - 0.0
30/11:00am 23.0 18.4 1.4 24 10.2 ENE 15 20 8 11 1023.1 - 0.0
30/10:30am 21.3 16.7 1.6 27 9.2 NE 15 22 8 12 1023.6 - 0.0
30/10:00am 19.3 15.5 1.8 31 8.1 NE 11 17 6 9 1024.0 - 0.0
30/09:30am 16.9 14.1 2.1 37 6.8 NNE 6 9 3 5 1024.3 - 0.0
30/09:00am 14.7 11.9 1.9 42 5.7 NW 6 9 3 5 1024.4 1023.9 0.0
30/08:30am 11.8 8.8 1.7 50 4.4 WNW 7 9 4 5 1024.4 - 0.0
30/08:00am 9.1 6.1 2.2 62 2.9 NW 7 9 4 5 1024.2 - 0.0
30/07:30am 5.7 4.1 2.2 78 1.4 CALM 0 0 0 0 1023.8 - 0.0
30/07:00am 2.8 -0.4 0.7 86 0.8 WSW 7 11 4 6 1023.5 - 0.0
30/06:30am 2.9 -0.8 0.1 82 1.1 N 9 11 5 6 1023.0 - 0.0
30/06:00am 2.8 -0.3 0.4 84 0.9 NW 6 7 3 4 1022.8 1022.4 0.0
30/05:30am 2.8 0.7 -0.6 78 1.3 CALM 0 0 0 0 1022.7 - 0.0
30/05:00am 3.1 0.9 -1.4 72 1.6 CALM 0 0 0 0 1022.4 - 0.0
30/04:30am 5.6 3.7 0.4 69 2.1 CALM 0 0 0 0 1022.0 - 0.0
30/04:00am 3.3 1.3 0.2 80 1.2 CALM 0 0 0 0 1022.0 - 0.0
30/03:30am 3.5 0.4 0.2 79 1.3 S 6 9 3 5 1022.2 - 0.0
30/03:00am 3.9 0.2 0.1 76 1.5 SSW 9 13 5 7 1022.0 1021.6 0.0
30/02:30am 4.8 2.8 0.2 72 1.8 CALM 0 7 0 4 1022.0 - 0.0
30/02:00am 4.5 2.5 -0.1 72 1.8 CALM 0 0 0 0 1022.0 - 0.0
30/01:30am 5.5 3.6 0.5 70 2.0 CALM 0 0 0 0 1022.0 - 0.0
30/01:00am 5.9 4.1 0.9 70 2.0 CALM 0 0 0 0 1022.4 - 0.0
30/12:30am 5.9 3.3 1.2 72 1.9 SE 4 6 2 3 1022.3 - 0.0
30/12:00am 6.1 3.1 0.9 69 2.1 WSW 6 7 3 4 1022.2 1021.8 0.0
 
Date/Time
EST
Temp
°C
App
Temp
°C
Dew
Point
Rel
Hum
%
Delta-T
°C
Wind Press
QNH
hPa
Press
MSL
hPa
Rain
since 9 am
mm
Dir
 
Spd
km/h
Gust
km/h
Spd
kts
Gust
kts
29/11:30pm 7.1 4.5 1.0 65 2.5 ENE 4 11 2 6 1022.0 - 0.0
29/11:00pm 7.5 5.0 1.6 66 2.4 WNW 4 9 2 5 1021.8 - 0.0
29/10:30pm 7.7 5.0 0.2 59 3.0 SW 4 9 2 5 1021.8 - 0.0
29/10:00pm 10.4 7.8 0.7 51 4.1 WSW 4 7 2 4 1021.6 - 0.0
29/09:30pm 9.2 6.9 0.4 54 3.6 WSW 2 7 1 4 1021.3 - 0.0
29/09:00pm 13.3 10.7 0.7 42 5.4 NE 4 7 2 4 1021.2 1020.7 0.0
29/08:30pm 14.1 12.2 0.4 39 5.9 CALM 0 0 0 0 1021.1 - 0.0
29/08:00pm 14.0 12.1 0.6 40 5.8 CALM 0 0 0 0 1021.0 - 0.0
29/07:30pm 14.3 12.3 -0.2 37 6.2 CALM 0 6 0 3 1020.9 - 0.0
29/07:00pm 16.4 13.2 -0.3 32 7.2 S 6 9 3 5 1020.4 - 0.0
29/06:30pm 16.4 12.3 -0.3 32 7.2 S 11 11 6 6 1020.2 - 0.0
29/06:00pm 16.9 12.7 -0.8 30 7.6 SSW 11 13 6 7 1020.0 1019.6 0.0
29/05:30pm 20.5 16.2 -1.3 23 9.6 SSW 11 11 6 6 1019.7 - 0.0
29/05:00pm 23.5 19.7 -0.7 20 11.0 S 9 13 5 7 1019.4 - 0.0
29/04:30pm 24.4 19.8 -0.7 19 11.5 SSW 13 17 7 9 1019.2 - 0.0
29/04:00pm 24.8 19.1 -1.1 18 11.8 SW 19 22 10 12 1019.2 - 0.0
29/03:30pm 25.1 19.8 -0.9 18 12.0 S 17 26 9 14 1019.2 - 0.0
29/03:00pm 25.3 21.1 -0.7 18 12.0 WSW 11 20 6 11 1019.4 1019.0 0.0
29/02:30pm 25.4 20.5 -0.6 18 12.1 SW 15 24 8 13 1019.4 - 0.0
29/02:00pm 25.9 20.7 -0.2 18 12.2 SW 17 24 9 13 1019.7 - 0.0
29/01:30pm 25.5 20.6 -0.5 18 12.1 WSW 15 24 8 13 1020.1 - 0.0
29/01:00pm 24.7 21.4 0.3 20 11.4 W 7 15 4 8 1020.7 - 0.0
29/12:30pm 24.8 19.6 0.3 20 11.5 SW 17 24 9 13 1021.3 - 0.0
29/12:00pm 24.2 20.5 -0.2 20 11.2 WNW 9 17 5 9 1021.7 1021.2 0.0

Other Formats:

Comma delimited format used in spreadsheet applications
http://www.bom.gov.au/fwo/IDQ60801/IDQ60801.94515.axf

JavaScript Object Notation format (JSON) in row-major order
http://www.bom.gov.au/fwo/IDQ60801/IDQ60801.94515.json